sensor_id;sensor_type;location;lat;lon;timestamp;pressure;altitude;pressure_sealevel;temperature;humidity
17309;BME280;8772;42.804;23.426;2022-07-04T00:01:24;94916.69;;;20.78;85.37
17309;BME280;8772;42.804;23.426;2022-07-04T00:03:51;94912.22;;;20.75;89.59
17309;BME280;8772;42.804;23.426;2022-07-04T00:06:18;94921.56;;;20.74;89.03
17309;BME280;8772;42.804;23.426;2022-07-04T00:08:45;94918.56;;;20.72;89.21
17309;BME280;8772;42.804;23.426;2022-07-04T00:11:12;94924.16;;;20.54;81.24
17309;BME280;8772;42.804;23.426;2022-07-04T00:13:39;94909.91;;;20.59;83.15
17309;BME280;8772;42.804;23.426;2022-07-04T00:16:07;94914.41;;;20.62;86.12
17309;BME280;8772;42.804;23.426;2022-07-04T00:18:34;94912.91;;;20.61;81.12
17309;BME280;8772;42.804;23.426;2022-07-04T00:21:01;94912.91;;;20.46;86.83
17309;BME280;8772;42.804;23.426;2022-07-04T00:23:28;94913.00;;;20.37;88.45
17309;BME280;8772;42.804;23.426;2022-07-04T00:25:54;94916.16;;;20.21;92.91
17309;BME280;8772;42.804;23.426;2022-07-04T00:28:21;94912.09;;;20.17;93.29
17309;BME280;8772;42.804;23.426;2022-07-04T00:30:48;94910.22;;;20.09;95.66
17309;BME280;8772;42.804;23.426;2022-07-04T00:33:16;94907.94;;;20.07;94.17
17309;BME280;8772;42.804;23.426;2022-07-04T00:35:43;94911.06;;;19.91;96.99
17309;BME280;8772;42.804;23.426;2022-07-04T00:38:10;94908.06;;;19.89;95.96
17309;BME280;8772;42.804;23.426;2022-07-04T00:40:37;94903.88;;;19.79;93.48
17309;BME280;8772;42.804;23.426;2022-07-04T00:43:05;94902.16;;;19.67;96.20
17309;BME280;8772;42.804;23.426;2022-07-04T00:45:33;94894.34;;;19.60;94.15
17309;BME280;8772;42.804;23.426;2022-07-04T00:47:59;94888.47;;;19.62;95.42
17309;BME280;8772;42.804;23.426;2022-07-04T00:50:28;94893.50;;;19.54;99.46
17309;BME280;8772;42.804;23.426;2022-07-04T00:52:55;94892.91;;;19.50;93.31
17309;BME280;8772;42.804;23.426;2022-07-04T00:55:23;94885.50;;;19.51;95.61
17309;BME280;8772;42.804;23.426;2022-07-04T00:57:51;94894.91;;;19.41;89.12
17309;BME280;8772;42.804;23.426;2022-07-04T01:00:18;94891.81;;;19.57;91.63
17309;BME280;8772;42.804;23.426;2022-07-04T01:02:46;94893.25;;;19.43;97.37
17309;BME280;8772;42.804;23.426;2022-07-04T01:08:37;94894.56;;;19.48;94.83
17309;BME280;8772;42.804;23.426;2022-07-04T01:11:04;94898.09;;;19.39;94.56
17309;BME280;8772;42.804;23.426;2022-07-04T01:13:31;94899.00;;;19.36;95.64
17309;BME280;8772;42.804;23.426;2022-07-04T01:15:59;94892.06;;;19.35;96.56
17309;BME280;8772;42.804;23.426;2022-07-04T01:18:26;94885.91;;;19.35;96.19
17309;BME280;8772;42.804;23.426;2022-07-04T01:20:54;94893.34;;;19.25;100.00
17309;BME280;8772;42.804;23.426;2022-07-04T01:23:21;94892.75;;;19.21;99.57
17309;BME280;8772;42.804;23.426;2022-07-04T01:25:48;94908.13;;;19.06;100.00
17309;BME280;8772;42.804;23.426;2022-07-04T01:28:15;94895.94;;;19.02;97.33
17309;BME280;8772;42.804;23.426;2022-07-04T01:30:42;94887.69;;;18.96;100.00
17309;BME280;8772;42.804;23.426;2022-07-04T01:33:10;94897.78;;;18.96;100.00
17309;BME280;8772;42.804;23.426;2022-07-04T01:35:37;94894.94;;;18.90;100.00
17309;BME280;8772;42.804;23.426;2022-07-04T01:38:05;94893.31;;;18.75;100.00
17309;BME280;8772;42.804;23.426;2022-07-04T01:40:32;94892.88;;;18.76;100.00
17309;BME280;8772;42.804;23.426;2022-07-04T01:42:59;94896.66;;;18.70;100.00
17309;BME280;8772;42.804;23.426;2022-07-04T01:45:26;94891.69;;;18.59;100.00
17309;BME280;8772;42.804;23.426;2022-07-04T01:47:53;94896.97;;;18.54;100.00
17309;BME280;8772;42.804;23.426;2022-07-04T01:50:21;94895.75;;;18.64;100.00
17309;BME280;8772;42.804;23.426;2022-07-04T01:52:48;94896.53;;;18.46;100.00
17309;BME280;8772;42.804;23.426;2022-07-04T01:55:16;94889.31;;;18.43;100.00
17309;BME280;8772;42.804;23.426;2022-07-04T01:57:43;94899.28;;;18.28;100.00
17309;BME280;8772;42.804;23.426;2022-07-04T02:00:11;94898.63;;;18.24;100.00
17309;BME280;8772;42.804;23.426;2022-07-04T02:02:55;94891.13;;;18.19;100.00
17309;BME280;8772;42.804;23.426;2022-07-04T02:05:23;94892.94;;;18.04;100.00
17309;BME280;8772;42.804;23.426;2022-07-04T02:07:50;94892.31;;;18.09;100.00
17309;BME280;8772;42.804;23.426;2022-07-04T02:10:19;94890.81;;;17.90;100.00
17309;BME280;8772;42.804;23.426;2022-07-04T02:12:46;94891.56;;;17.91;100.00
17309;BME280;8772;42.804;23.426;2022-07-04T02:15:27;94902.53;;;17.87;100.00
17309;BME280;8772;42.804;23.426;2022-07-04T02:17:55;94902.22;;;17.85;100.00
17309;BME280;8772;42.804;23.426;2022-07-04T02:20:22;94907.19;;;17.87;100.00
17309;BME280;8772;42.804;23.426;2022-07-04T02:22:49;94909.13;;;17.86;100.00
17309;BME280;8772;42.804;23.426;2022-07-04T02:25:16;94901.66;;;17.90;100.00
17309;BME280;8772;42.804;23.426;2022-07-04T02:27:45;94909.13;;;17.86;100.00
17309;BME280;8772;42.804;23.426;2022-07-04T02:30:12;94910.50;;;17.82;100.00
17309;BME280;8772;42.804;23.426;2022-07-04T02:32:40;94907.34;;;17.83;100.00
17309;BME280;8772;42.804;23.426;2022-07-04T02:35:08;94910.97;;;17.89;100.00
17309;BME280;8772;42.804;23.426;2022-07-04T02:37:36;94913.94;;;17.73;100.00
17309;BME280;8772;42.804;23.426;2022-07-04T02:40:04;94907.00;;;17.73;100.00
17309;BME280;8772;42.804;23.426;2022-07-04T02:42:32;94909.41;;;17.71;100.00
17309;BME280;8772;42.804;23.426;2022-07-04T02:45:00;94904.00;;;17.71;100.00
17309;BME280;8772;42.804;23.426;2022-07-04T02:47:27;94905.81;;;17.65;100.00
17309;BME280;8772;42.804;23.426;2022-07-04T02:49:54;94901.59;;;17.55;100.00
17309;BME280;8772;42.804;23.426;2022-07-04T02:52:21;94910.75;;;17.57;100.00
17309;BME280;8772;42.804;23.426;2022-07-04T02:54:48;94912.50;;;17.42;100.00
17309;BME280;8772;42.804;23.426;2022-07-04T02:57:18;94910.88;;;17.45;100.00
17309;BME280;8772;42.804;23.426;2022-07-04T02:59:45;94920.91;;;17.44;100.00
17309;BME280;8772;42.804;23.426;2022-07-04T03:02:14;94913.31;;;17.52;100.00
17309;BME280;8772;42.804;23.426;2022-07-04T03:04:41;94923.47;;;17.48;100.00
17309;BME280;8772;42.804;23.426;2022-07-04T03:07:07;94923.78;;;17.50;100.00
17309;BME280;8772;42.804;23.426;2022-07-04T03:09:34;94924.69;;;17.47;100.00
17309;BME280;8772;42.804;23.426;2022-07-04T03:12:02;94928.41;;;17.40;100.00
17309;BME280;8772;42.804;23.426;2022-07-04T03:14:29;94928.00;;;17.42;100.00
17309;BME280;8772;42.804;23.426;2022-07-04T03:16:56;94929.31;;;17.37;100.00
17309;BME280;8772;42.804;23.426;2022-07-04T03:19:24;94920.00;;;17.38;100.00
17309;BME280;8772;42.804;23.426;2022-07-04T03:21:51;94935.13;;;17.27;100.00
17309;BME280;8772;42.804;23.426;2022-07-04T03:24:18;94929.94;;;17.11;100.00
17309;BME280;8772;42.804;23.426;2022-07-04T03:26:45;94934.41;;;17.05;100.00
17309;BME280;8772;42.804;23.426;2022-07-04T03:29:12;94928.72;;;17.12;100.00
17309;BME280;8772;42.804;23.426;2022-07-04T03:31:38;94932.03;;;17.07;100.00
17309;BME280;8772;42.804;23.426;2022-07-04T03:34:05;94941.81;;;17.13;100.00
17309;BME280;8772;42.804;23.426;2022-07-04T03:36:34;94937.19;;;17.23;100.00
17309;BME280;8772;42.804;23.426;2022-07-04T03:39:01;94940.78;;;17.20;100.00
17309;BME280;8772;42.804;23.426;2022-07-04T03:41:28;94931.81;;;17.32;100.00
17309;BME280;8772;42.804;23.426;2022-07-04T03:43:55;94929.72;;;17.27;100.00
17309;BME280;8772;42.804;23.426;2022-07-04T03:46:21;94935.72;;;17.31;100.00
17309;BME280;8772;42.804;23.426;2022-07-04T03:48:49;94930.41;;;17.49;100.00
17309;BME280;8772;42.804;23.426;2022-07-04T03:51:16;94928.63;;;17.55;100.00
17309;BME280;8772;42.804;23.426;2022-07-04T03:53:44;94928.31;;;17.62;100.00
17309;BME280;8772;42.804;23.426;2022-07-04T03:56:11;94922.28;;;17.49;100.00
17309;BME280;8772;42.804;23.426;2022-07-04T03:58:38;94934.03;;;17.55;100.00
17309;BME280;8772;42.804;23.426;2022-07-04T04:01:07;94930.44;;;17.58;100.00
17309;BME280;8772;42.804;23.426;2022-07-04T04:03:35;94932.88;;;17.65;100.00
17309;BME280;8772;42.804;23.426;2022-07-04T04:06:19;94932.53;;;17.63;100.00
17309;BME280;8772;42.804;23.426;2022-07-04T04:08:48;94930.13;;;17.56;100.00
17309;BME280;8772;42.804;23.426;2022-07-04T04:11:14;94934.38;;;17.66;100.00
17309;BME280;8772;42.804;23.426;2022-07-04T04:13:41;94936.47;;;17.71;100.00
17309;BME280;8772;42.804;23.426;2022-07-04T04:16:09;94936.47;;;17.71;100.00
17309;BME280;8772;42.804;23.426;2022-07-04T04:18:36;94935.56;;;17.73;100.00
17309;BME280;8772;42.804;23.426;2022-07-04T04:21:03;94939.34;;;17.76;100.00
17309;BME280;8772;42.804;23.426;2022-07-04T04:23:30;94939.19;;;17.79;100.00
17309;BME280;8772;42.804;23.426;2022-07-04T04:25:58;94942.50;;;17.83;100.00
17309;BME280;8772;42.804;23.426;2022-07-04T04:28:25;94935.28;;;17.80;100.00
17309;BME280;8772;42.804;23.426;2022-07-04T04:30:52;94938.16;;;17.86;100.00
17309;BME280;8772;42.804;23.426;2022-07-04T04:33:19;94947.34;;;17.88;100.00
17309;BME280;8772;42.804;23.426;2022-07-04T04:35:46;94943.72;;;17.91;100.00
17309;BME280;8772;42.804;23.426;2022-07-04T04:38:13;94952.16;;;18.02;100.00
17309;BME280;8772;42.804;23.426;2022-07-04T04:40:40;94947.06;;;18.13;100.00
17309;BME280;8772;42.804;23.426;2022-07-04T04:43:08;94942.59;;;18.28;100.00
17309;BME280;8772;42.804;23.426;2022-07-04T04:45:35;94939.88;;;18.37;100.00
17309;BME280;8772;42.804;23.426;2022-07-04T04:48:02;94942.72;;;18.43;100.00
17309;BME280;8772;42.804;23.426;2022-07-04T04:50:32;94944.97;;;18.62;100.00
17309;BME280;8772;42.804;23.426;2022-07-04T04:53:00;94944.81;;;18.66;100.00
17309;BME280;8772;42.804;23.426;2022-07-04T04:55:27;94941.34;;;18.74;100.00
17309;BME280;8772;42.804;23.426;2022-07-04T04:57:54;94936.63;;;18.93;100.00
17309;BME280;8772;42.804;23.426;2022-07-04T05:00:23;94944.59;;;19.05;100.00
17309;BME280;8772;42.804;23.426;2022-07-04T05:02:50;94944.09;;;19.16;100.00
17309;BME280;8772;42.804;23.426;2022-07-04T05:05:17;94945.72;;;19.31;100.00
17309;BME280;8772;42.804;23.426;2022-07-04T05:07:43;94941.56;;;19.54;100.00
17309;BME280;8772;42.804;23.426;2022-07-04T05:10:10;94935.47;;;19.68;100.00
17309;BME280;8772;42.804;23.426;2022-07-04T05:12:37;94935.19;;;19.89;100.00
17309;BME280;8772;42.804;23.426;2022-07-04T05:15:05;94938.88;;;20.10;100.00
17309;BME280;8772;42.804;23.426;2022-07-04T05:17:33;94937.97;;;20.27;100.00
17309;BME280;8772;42.804;23.426;2022-07-04T05:20:00;94933.44;;;20.47;100.00
17309;BME280;8772;42.804;23.426;2022-07-04T05:22:27;94936.16;;;20.62;100.00
17309;BME280;8772;42.804;23.426;2022-07-04T05:24:54;94943.28;;;20.74;100.00
17309;BME280;8772;42.804;23.426;2022-07-04T05:27:21;94941.50;;;20.94;100.00
17309;BME280;8772;42.804;23.426;2022-07-04T05:29:48;94945.81;;;21.01;100.00
17309;BME280;8772;42.804;23.426;2022-07-04T05:32:15;94952.16;;;21.12;100.00
17309;BME280;8772;42.804;23.426;2022-07-04T05:34:44;94944.81;;;21.33;100.00
17309;BME280;8772;42.804;23.426;2022-07-04T05:37:11;94951.75;;;21.48;100.00
17309;BME280;8772;42.804;23.426;2022-07-04T05:39:38;94945.72;;;21.59;100.00
17309;BME280;8772;42.804;23.426;2022-07-04T05:42:06;94942.03;;;21.62;100.00
17309;BME280;8772;42.804;23.426;2022-07-04T05:44:33;94946.69;;;21.70;100.00
17309;BME280;8772;42.804;23.426;2022-07-04T05:47:00;94947.56;;;21.82;100.00
17309;BME280;8772;42.804;23.426;2022-07-04T05:49:27;94943.97;;;21.90;100.00
17309;BME280;8772;42.804;23.426;2022-07-04T05:51:55;94935.28;;;22.06;100.00
17309;BME280;8772;42.804;23.426;2022-07-04T05:54:23;94944.25;;;22.12;100.00
17309;BME280;8772;42.804;23.426;2022-07-04T05:56:50;94935.00;;;22.24;100.00
17309;BME280;8772;42.804;23.426;2022-07-04T05:59:17;94940.78;;;22.32;100.00
17309;BME280;8772;42.804;23.426;2022-07-04T06:01:44;94948.44;;;22.48;99.28
17309;BME280;8772;42.804;23.426;2022-07-04T06:04:11;94946.31;;;22.57;100.00
17309;BME280;8772;42.804;23.426;2022-07-04T06:06:38;94950.28;;;22.56;100.00
17309;BME280;8772;42.804;23.426;2022-07-04T06:09:06;94942.19;;;22.67;99.75
17309;BME280;8772;42.804;23.426;2022-07-04T06:11:33;94945.53;;;22.76;97.75
17309;BME280;8772;42.804;23.426;2022-07-04T06:14:01;94942.63;;;22.85;98.08
17309;BME280;8772;42.804;23.426;2022-07-04T06:16:28;94940.28;;;22.98;95.56
17309;BME280;8772;42.804;23.426;2022-07-04T06:18:55;94937.94;;;23.11;99.63
17309;BME280;8772;42.804;23.426;2022-07-04T06:21:22;94944.78;;;23.27;95.72
17309;BME280;8772;42.804;23.426;2022-07-04T06:23:48;94937.44;;;23.38;92.17
17309;BME280;8772;42.804;23.426;2022-07-04T06:26:17;94933.25;;;23.43;92.86
17309;BME280;8772;42.804;23.426;2022-07-04T06:28:44;94929.31;;;23.44;96.30
17309;BME280;8772;42.804;23.426;2022-07-04T06:31:11;94926.16;;;23.56;89.93
17309;BME280;8772;42.804;23.426;2022-07-04T06:33:38;94927.94;;;23.65;90.89
17309;BME280;8772;42.804;23.426;2022-07-04T06:36:19;94930.00;;;23.75;91.34
17309;BME280;8772;42.804;23.426;2022-07-04T06:38:47;94926.81;;;23.82;93.39
17309;BME280;8772;42.804;23.426;2022-07-04T06:41:17;94919.50;;;23.99;93.17
17309;BME280;8772;42.804;23.426;2022-07-04T06:43:43;94920.06;;;24.14;92.12
17309;BME280;8772;42.804;23.426;2022-07-04T06:46:10;94924.09;;;24.30;89.50
17309;BME280;8772;42.804;23.426;2022-07-04T06:48:37;94925.56;;;24.25;77.85
17309;BME280;8772;42.804;23.426;2022-07-04T06:51:04;94933.81;;;24.42;79.35
17309;BME280;8772;42.804;23.426;2022-07-04T06:53:31;94930.38;;;24.47;81.04
17309;BME280;8772;42.804;23.426;2022-07-04T06:55:58;94924.72;;;24.56;77.79
17309;BME280;8772;42.804;23.426;2022-07-04T06:58:26;94920.50;;;24.60;63.29
17309;BME280;8772;42.804;23.426;2022-07-04T07:00:53;94920.03;;;24.67;62.36
17309;BME280;8772;42.804;23.426;2022-07-04T07:03:20;94921.28;;;24.77;64.54
17309;BME280;8772;42.804;23.426;2022-07-04T07:05:47;94915.84;;;24.88;64.02
17309;BME280;8772;42.804;23.426;2022-07-04T07:08:14;94922.81;;;25.00;61.73
17309;BME280;8772;42.804;23.426;2022-07-04T07:10:41;94910.88;;;25.14;63.84
17309;BME280;8772;42.804;23.426;2022-07-04T07:13:08;94918.13;;;25.28;62.66
17309;BME280;8772;42.804;23.426;2022-07-04T07:15:37;94915.16;;;25.42;60.73
17309;BME280;8772;42.804;23.426;2022-07-04T07:18:04;94912.38;;;25.48;61.93
17309;BME280;8772;42.804;23.426;2022-07-04T07:20:31;94903.91;;;25.57;60.42
17309;BME280;8772;42.804;23.426;2022-07-04T07:23:01;94903.41;;;25.75;60.31
17309;BME280;8772;42.804;23.426;2022-07-04T07:25:28;94899.91;;;25.80;60.27
17309;BME280;8772;42.804;23.426;2022-07-04T07:27:55;94894.41;;;25.91;59.77
17309;BME280;8772;42.804;23.426;2022-07-04T07:30:22;94903.63;;;26.04;59.85
17309;BME280;8772;42.804;23.426;2022-07-04T07:32:51;94901.34;;;26.14;58.63
17309;BME280;8772;42.804;23.426;2022-07-04T07:35:18;94905.28;;;26.24;58.41
17309;BME280;8772;42.804;23.426;2022-07-04T07:37:45;94903.25;;;26.30;57.35
17309;BME280;8772;42.804;23.426;2022-07-04T07:40:12;94897.72;;;26.41;59.00
17309;BME280;8772;42.804;23.426;2022-07-04T07:42:39;94899.22;;;26.42;54.28
17309;BME280;8772;42.804;23.426;2022-07-04T07:45:07;94898.66;;;26.60;56.78
17309;BME280;8772;42.804;23.426;2022-07-04T07:47:34;94898.13;;;26.67;57.06
17309;BME280;8772;42.804;23.426;2022-07-04T07:50:03;94900.56;;;26.76;55.69
17309;BME280;8772;42.804;23.426;2022-07-04T07:52:30;94900.06;;;26.72;56.83
17309;BME280;8772;42.804;23.426;2022-07-04T07:54:57;94901.50;;;26.84;56.95
17309;BME280;8772;42.804;23.426;2022-07-04T07:57:25;94896.97;;;26.92;56.34
17309;BME280;8772;42.804;23.426;2022-07-04T07:59:52;94892.63;;;27.07;55.17
17309;BME280;8772;42.804;23.426;2022-07-04T08:02:19;94887.13;;;27.07;55.62
17309;BME280;8772;42.804;23.426;2022-07-04T08:05:08;94898.34;;;27.15;56.96
17309;BME280;8772;42.804;23.426;2022-07-04T08:07:34;94884.75;;;27.28;56.32
17309;BME280;8772;42.804;23.426;2022-07-04T08:10:01;94892.19;;;27.33;55.71
17309;BME280;8772;42.804;23.426;2022-07-04T08:12:28;94890.16;;;27.38;55.94
17309;BME280;8772;42.804;23.426;2022-07-04T08:14:55;94895.88;;;27.40;56.72
17309;BME280;8772;42.804;23.426;2022-07-04T08:17:22;94887.75;;;27.53;55.27
17309;BME280;8772;42.804;23.426;2022-07-04T08:19:49;94892.88;;;27.68;56.87
17309;BME280;8772;42.804;23.426;2022-07-04T08:22:17;94882.66;;;27.63;54.49
17309;BME280;8772;42.804;23.426;2022-07-04T08:24:44;94885.28;;;27.79;54.77
17309;BME280;8772;42.804;23.426;2022-07-04T08:27:12;94882.53;;;28.03;54.97
17309;BME280;8772;42.804;23.426;2022-07-04T08:29:40;94874.94;;;28.09;57.41
17309;BME280;8772;42.804;23.426;2022-07-04T08:32:07;94874.81;;;28.20;53.99
17309;BME280;8772;42.804;23.426;2022-07-04T08:34:34;94875.03;;;27.80;53.39
17309;BME280;8772;42.804;23.426;2022-07-04T08:37:01;94871.31;;;28.01;53.83
17309;BME280;8772;42.804;23.426;2022-07-04T08:39:29;94875.09;;;27.98;51.64
17309;BME280;8772;42.804;23.426;2022-07-04T08:42:02;94865.94;;;28.33;54.49
17309;BME280;8772;42.804;23.426;2022-07-04T08:44:30;94865.41;;;28.71;52.54
17309;BME280;8772;42.804;23.426;2022-07-04T08:46:57;94872.94;;;28.89;52.12
17309;BME280;8772;42.804;23.426;2022-07-04T08:49:30;94868.91;;;29.09;52.84
17309;BME280;8772;42.804;23.426;2022-07-04T08:52:00;94867.84;;;29.43;52.26
17309;BME280;8772;42.804;23.426;2022-07-04T08:54:31;94859.13;;;29.83;51.62
17309;BME280;8772;42.804;23.426;2022-07-04T08:57:16;94862.66;;;30.23;48.59
17309;BME280;8772;42.804;23.426;2022-07-04T09:00:00;94861.75;;;30.67;49.02
17309;BME280;8772;42.804;23.426;2022-07-04T09:02:29;94856.31;;;30.95;46.58
17309;BME280;8772;42.804;23.426;2022-07-04T09:04:56;94864.94;;;31.25;47.31
17309;BME280;8772;42.804;23.426;2022-07-04T09:07:23;94867.09;;;31.60;45.58
17309;BME280;8772;42.804;23.426;2022-07-04T09:09:52;94863.81;;;31.89;45.63
17309;BME280;8772;42.804;23.426;2022-07-04T09:12:19;94864.16;;;32.14;45.68
17309;BME280;8772;42.804;23.426;2022-07-04T09:14:46;94864.75;;;32.47;43.37
17309;BME280;8772;42.804;23.426;2022-07-04T09:17:13;94859.34;;;32.85;44.01
17309;BME280;8772;42.804;23.426;2022-07-04T09:19:40;94861.09;;;33.10;41.40
17309;BME280;8772;42.804;23.426;2022-07-04T09:22:09;94861.28;;;33.20;42.80
17309;BME280;8772;42.804;23.426;2022-07-04T09:24:48;94857.56;;;33.17;41.58
17309;BME280;8772;42.804;23.426;2022-07-04T09:27:31;94856.91;;;33.62;40.20
17309;BME280;8772;42.804;23.426;2022-07-04T09:29:59;94857.28;;;33.88;40.21
17309;BME280;8772;42.804;23.426;2022-07-04T09:32:36;94858.03;;;33.96;39.41
17309;BME280;8772;42.804;23.426;2022-07-04T09:35:05;94855.44;;;33.83;39.01
17309;BME280;8772;42.804;23.426;2022-07-04T09:37:37;94844.28;;;34.13;39.15
17309;BME280;8772;42.804;23.426;2022-07-04T09:40:08;94842.00;;;34.42;40.27
17309;BME280;8772;42.804;23.426;2022-07-04T09:42:38;94831.59;;;34.50;39.17
17309;BME280;8772;42.804;23.426;2022-07-04T09:45:07;94837.16;;;34.42;37.81
17309;BME280;8772;42.804;23.426;2022-07-04T09:47:36;94834.16;;;34.55;39.96
17309;BME280;8772;42.804;23.426;2022-07-04T09:50:05;94833.47;;;34.47;38.27
17309;BME280;8772;42.804;23.426;2022-07-04T09:52:33;94829.50;;;35.04;38.57
17309;BME280;8772;42.804;23.426;2022-07-04T09:55:10;94830.06;;;34.71;37.85
17309;BME280;8772;42.804;23.426;2022-07-04T09:57:44;94831.53;;;34.57;40.13
17309;BME280;8772;42.804;23.426;2022-07-04T10:00:19;94822.50;;;34.96;38.87
17309;BME280;8772;42.804;23.426;2022-07-04T10:02:46;94822.13;;;34.92;38.18
17309;BME280;8772;42.804;23.426;2022-07-04T10:05:19;94823.28;;;34.89;39.21
17309;BME280;8772;42.804;23.426;2022-07-04T10:07:46;94821.41;;;35.48;39.37
17309;BME280;8772;42.804;23.426;2022-07-04T10:10:21;94832.47;;;35.55;38.21
17309;BME280;8772;42.804;23.426;2022-07-04T10:12:51;94824.25;;;35.65;37.84
17309;BME280;8772;42.804;23.426;2022-07-04T10:15:19;94823.31;;;35.87;36.54
17309;BME280;8772;42.804;23.426;2022-07-04T10:17:47;94823.97;;;35.95;35.57
17309;BME280;8772;42.804;23.426;2022-07-04T10:20:14;94830.50;;;36.31;37.85
17309;BME280;8772;42.804;23.426;2022-07-04T10:22:42;94835.31;;;36.14;36.97
17309;BME280;8772;42.804;23.426;2022-07-04T10:25:10;94821.22;;;36.12;37.16
17309;BME280;8772;42.804;23.426;2022-07-04T10:27:37;94821.06;;;36.27;36.50
17309;BME280;8772;42.804;23.426;2022-07-04T10:30:10;94820.25;;;36.34;35.88
17309;BME280;8772;42.804;23.426;2022-07-04T10:32:38;94813.00;;;36.65;34.20
17309;BME280;8772;42.804;23.426;2022-07-04T10:35:11;94817.22;;;36.56;34.57
17309;BME280;8772;42.804;23.426;2022-07-04T10:38:01;94823.81;;;36.44;33.79
17309;BME280;8772;42.804;23.426;2022-07-04T10:40:42;94801.56;;;36.27;33.58
17309;BME280;8772;42.804;23.426;2022-07-04T10:46:29;94805.72;;;35.11;35.46
17309;BME280;8772;42.804;23.426;2022-07-04T10:48:57;94799.66;;;34.73;34.99
17309;BME280;8772;42.804;23.426;2022-07-04T10:51:48;94791.25;;;34.41;37.56
17309;BME280;8772;42.804;23.426;2022-07-04T10:54:17;94794.38;;;33.83;36.98
17309;BME280;8772;42.804;23.426;2022-07-04T10:56:50;94794.75;;;33.57;37.82
17309;BME280;8772;42.804;23.426;2022-07-04T10:59:19;94780.66;;;33.70;39.07
17309;BME280;8772;42.804;23.426;2022-07-04T11:01:57;94779.72;;;33.98;37.60
17309;BME280;8772;42.804;23.426;2022-07-04T11:07:56;94781.06;;;33.44;39.51
17309;BME280;8772;42.804;23.426;2022-07-04T11:10:23;94774.34;;;33.92;38.74
17309;BME280;8772;42.804;23.426;2022-07-04T11:13:15;94771.97;;;34.43;38.27
17309;BME280;8772;42.804;23.426;2022-07-04T11:16:06;94770.06;;;34.53;35.87
17309;BME280;8772;42.804;23.426;2022-07-04T11:18:44;94767.94;;;35.00;38.24
17309;BME280;8772;42.804;23.426;2022-07-04T11:21:19;94768.63;;;34.84;37.08
17309;BME280;8772;42.804;23.426;2022-07-04T11:23:53;94769.66;;;34.64;35.65
17309;BME280;8772;42.804;23.426;2022-07-04T11:26:21;94773.22;;;34.10;38.13
17309;BME280;8772;42.804;23.426;2022-07-04T11:28:48;94766.53;;;34.21;38.10
17309;BME280;8772;42.804;23.426;2022-07-04T11:31:15;94766.97;;;33.87;39.88
17309;BME280;8772;42.804;23.426;2022-07-04T11:33:44;94764.25;;;33.42;39.69
17309;BME280;8772;42.804;23.426;2022-07-04T11:36:13;94764.13;;;32.60;40.54
17309;BME280;8772;42.804;23.426;2022-07-04T11:38:49;94763.41;;;32.59;41.37
17309;BME280;8772;42.804;23.426;2022-07-04T11:41:19;94761.25;;;32.23;43.15
17309;BME280;8772;42.804;23.426;2022-07-04T11:44:06;94758.28;;;32.71;43.57
17309;BME280;8772;42.804;23.426;2022-07-04T11:46:50;94754.44;;;32.96;42.39
17309;BME280;8772;42.804;23.426;2022-07-04T11:49:19;94749.28;;;33.30;41.41
17309;BME280;8772;42.804;23.426;2022-07-04T11:51:47;94747.78;;;33.14;41.06
17309;BME280;8772;42.804;23.426;2022-07-04T11:54:14;94737.41;;;32.77;39.81
17309;BME280;8772;42.804;23.426;2022-07-04T11:56:43;94732.63;;;33.30;41.43
17309;BME280;8772;42.804;23.426;2022-07-04T11:59:12;94735.94;;;33.51;39.08
17309;BME280;8772;42.804;23.426;2022-07-04T12:01:40;94713.03;;;33.28;38.90
17309;BME280;8772;42.804;23.426;2022-07-04T12:04:15;94719.84;;;33.72;41.20
17309;BME280;8772;42.804;23.426;2022-07-04T12:06:44;94717.28;;;34.21;41.44
17309;BME280;8772;42.804;23.426;2022-07-04T12:09:13;94710.66;;;34.81;41.10
17309;BME280;8772;42.804;23.426;2022-07-04T12:11:56;94718.47;;;34.99;38.94
17309;BME280;8772;42.804;23.426;2022-07-04T12:14:24;94718.25;;;35.04;39.93
17309;BME280;8772;42.804;23.426;2022-07-04T12:17:13;94720.69;;;35.25;39.17
17309;BME280;8772;42.804;23.426;2022-07-04T12:19:54;94724.66;;;35.39;39.93
17309;BME280;8772;42.804;23.426;2022-07-04T12:22:31;94718.41;;;35.31;39.00
17309;BME280;8772;42.804;23.426;2022-07-04T12:25:00;94708.88;;;35.17;38.66
17309;BME280;8772;42.804;23.426;2022-07-04T12:27:28;94705.06;;;35.05;37.24
17309;BME280;8772;42.804;23.426;2022-07-04T12:29:56;94710.25;;;35.33;38.09
17309;BME280;8772;42.804;23.426;2022-07-04T12:32:23;94699.72;;;34.99;38.45
17309;BME280;8772;42.804;23.426;2022-07-04T12:34:50;94703.44;;;35.02;38.62
17309;BME280;8772;42.804;23.426;2022-07-04T12:37:17;94692.59;;;34.89;40.07
17309;BME280;8772;42.804;23.426;2022-07-04T12:39:45;94687.38;;;34.93;42.40
17309;BME280;8772;42.804;23.426;2022-07-04T12:42:14;94690.84;;;35.01;43.27
17309;BME280;8772;42.804;23.426;2022-07-04T12:44:43;94695.94;;;35.12;41.82
17309;BME280;8772;42.804;23.426;2022-07-04T12:47:11;94701.72;;;34.82;41.79
17309;BME280;8772;42.804;23.426;2022-07-04T12:49:43;94691.03;;;34.79;40.69
17309;BME280;8772;42.804;23.426;2022-07-04T12:52:13;94697.13;;;34.45;40.51
17309;BME280;8772;42.804;23.426;2022-07-04T12:54:40;94689.25;;;34.34;40.68
17309;BME280;8772;42.804;23.426;2022-07-04T12:57:13;94690.50;;;34.01;41.29
17309;BME280;8772;42.804;23.426;2022-07-04T12:59:41;94688.16;;;33.83;41.71
17309;BME280;8772;42.804;23.426;2022-07-04T13:02:10;94691.00;;;34.07;42.55
17309;BME280;8772;42.804;23.426;2022-07-04T13:04:38;94681.19;;;34.21;40.48
17309;BME280;8772;42.804;23.426;2022-07-04T13:07:16;94681.25;;;34.38;40.78
17309;BME280;8772;42.804;23.426;2022-07-04T13:09:44;94678.91;;;34.59;39.23
17309;BME280;8772;42.804;23.426;2022-07-04T13:12:13;94682.44;;;34.84;41.11
17309;BME280;8772;42.804;23.426;2022-07-04T13:14:55;94679.84;;;34.86;41.07
17309;BME280;8772;42.804;23.426;2022-07-04T13:17:23;94675.22;;;35.05;38.23